This is the latest recevied weather packets stored in our database for station/object SV9TNF-52. If no packets are shown the sender has not sent any weather packets the latest 10 day(s).
| Time | Temp. | Humidity | Pressure | Rain* | Wind** | Luminosity | Snow |
|---|---|---|---|---|---|---|---|
| 1788418747 | 30.56° C | 54% | 1018.3 hPa | 0 mm | 4.92 m/s, 310° | - | - |
| 1788418447 | 30° C | 53% | 1018.3 hPa | 0 mm | 4.92 m/s, 225° | - | - |
| 1788418159 | 30.56° C | 51% | 1018 hPa | 0 mm | 6.26 m/s, 335° | - | - |
| 1788417847 | 30.56° C | 49% | 1018 hPa | 0 mm | 4.47 m/s, 225° | - | - |
| 1788417547 | 30.56° C | 49% | 1018 hPa | 0 mm | 4.92 m/s, 292° | - | - |
| 1788417246 | 31.11° C | 47% | 1018 hPa | 0 mm | 4.47 m/s, 248° | - | - |
| 1788416947 | 31.67° C | 44% | 1018 hPa | 0 mm | 3.13 m/s, 228° | - | - |
| 1788416646 | 31.11° C | 46% | 1018 hPa | 0 mm | 4.02 m/s, 267° | - | - |
| 1788416346 | 31.11° C | 47% | 1018 hPa | 0 mm | 1.79 m/s, 233° | - | - |
| 1788416046 | 31.11° C | 46% | 1018 hPa | 0 mm | 1.34 m/s, 260° | - | - |
| 1788415746 | 31.11° C | 46% | 1018 hPa | 0 mm | 0 m/s | - | - |
| 1788415446 | 30.56° C | 46% | 1018 hPa | 0 mm | 1.79 m/s, 221° | - | - |
| 1788415146 | 30.56° C | 46% | 1018 hPa | 0 mm | 3.13 m/s, 255° | - | - |
| 1788414846 | 30° C | 46% | 1018 hPa | 0 mm | 0.45 m/s, 244° | - | - |
| 1788414558 | 29.44° C | 47% | 1018 hPa | 0 mm | 0.89 m/s, 223° | - | - |
| 1788414246 | 29.44° C | 46% | 1018 hPa | 0 mm | 0.89 m/s, 240° | - | - |
| 1788413945 | 28.89° C | 47% | 1018 hPa | 0 mm | 0.45 m/s, 261° | - | - |
| 1788413645 | 28.33° C | 46% | 1018 hPa | 0 mm | 0.45 m/s, 241° | - | - |
| 1788413345 | 27.22° C | 47% | 1018 hPa | 0 mm | 1.34 m/s, 204° | - | - |
| 1788413046 | 26.67° C | 48% | 1018 hPa | 0 mm | 1.79 m/s, 197° | - | - |
| 1788412745 | 26.67° C | 50% | 1018 hPa | 0 mm | 2.68 m/s, 187° | - | - |
| 1788412445 | 25.56° C | 49% | 1018 hPa | 0 mm | 2.68 m/s, 196° | - | - |
| 1788412145 | 25.56° C | 50% | 1018 hPa | 0 mm | 3.13 m/s, 229° | - | - |
| 1788411845 | 25° C | 51% | 1018 hPa | 0 mm | 2.68 m/s, 156° | - | - |
| 1788411545 | 24.44° C | 50% | 1018 hPa | 0 mm | 4.92 m/s, 288° | - | - |
* Rain latest hour (hover to see other rain measurements)
** Current wind speed in m/s (hover to see current wind gust speed)